Time;durP1;ratioP1;P1;durP2;ratioP2;P2;SDS_P1;SDS_P2;PMS_P1;PMS_P2;Temp;Humidity;BMP_temperature;BMP_pressure;BME280_temperature;BME280_humidity;BME280_pressure;Samples;Min_cycle;Max_cycle;Signal;HPM_P1;HPM_P2
2023/08/10 00:01:33;;;;;;;2.90;2.00;;;;;;;16.87;100.00;100614.19;5587487;31;33894;-70
2023/08/10 00:04:36;;;;;;;3.50;1.80;;;;;;;16.72;100.00;100611.69;5586555;31;33900;-71
2023/08/10 00:07:38;;;;;;;3.42;2.00;;;;;;;16.69;100.00;100611.28;5587269;31;33757;-70
2023/08/10 00:10:41;;;;;;;3.15;1.80;;;;;;;16.71;100.00;100611.88;5587404;31;33863;-70
2023/08/10 00:13:44;;;;;;;3.90;2.28;;;;;;;16.66;100.00;100609.81;5587439;31;33904;-71
2023/08/10 00:16:46;;;;;;;3.00;2.17;;;;;;;16.61;100.00;100614.13;5587341;31;33865;-70
2023/08/10 00:19:49;;;;;;;4.07;2.10;;;;;;;16.53;100.00;100605.22;5587347;31;34562;-70
2023/08/10 00:22:52;;;;;;;4.65;2.00;;;;;;;16.50;100.00;100604.81;5587286;31;34449;-70
2023/08/10 00:25:55;;;;;;;4.12;2.00;;;;;;;16.46;100.00;100609.72;5587673;31;34522;-70
2023/08/10 00:28:58;;;;;;;4.03;2.00;;;;;;;16.43;100.00;100603.94;5587372;31;33694;-69
2023/08/10 00:32:00;;;;;;;2.60;1.80;;;;;;;16.41;100.00;100611.34;5587290;31;33970;-70
2023/08/10 00:35:04;;;;;;;5.53;2.33;;;;;;;16.34;100.00;100608.62;5587171;31;33702;-70
2023/08/10 00:38:07;;;;;;;4.75;2.15;;;;;;;16.36;100.00;100605.78;5587200;31;34131;-70
2023/08/10 00:41:10;;;;;;;2.45;1.90;;;;;;;16.28;100.00;100605.94;5586770;31;33676;-70
2023/08/10 00:44:13;;;;;;;4.05;2.10;;;;;;;16.20;100.00;100600.75;5586946;31;34044;-69
2023/08/10 00:47:16;;;;;;;3.08;2.28;;;;;;;16.14;100.00;100607.72;5586367;31;33729;-70
2023/08/10 00:50:20;;;;;;;3.67;2.33;;;;;;;16.08;100.00;100606.66;5587159;31;33613;-70
2023/08/10 00:53:23;;;;;;;3.05;2.20;;;;;;;16.04;100.00;100593.88;5587009;31;33924;-70
2023/08/10 00:56:26;;;;;;;6.37;2.50;;;;;;;15.98;100.00;100600.00;5587058;31;34675;-70
2023/08/10 00:59:31;;;;;;;5.72;2.58;;;;;;;15.90;100.00;100601.00;5585948;31;33656;-70
2023/08/10 01:02:34;;;;;;;8.50;2.83;;;;;;;15.90;100.00;100601.00;5587026;31;34319;-70
2023/08/10 01:06:18;;;;;;;3.22;2.30;;;;;;;15.88;100.00;100602.22;5587115;31;33572;-70
2023/08/10 01:09:39;;;;;;;4.20;2.95;;;;;;;15.83;100.00;100597.44;5569563;31;32793;-70
2023/08/10 01:13:24;;;;;;;5.45;2.80;;;;;;;15.79;100.00;100609.56;5586828;31;33860;-70
2023/08/10 01:16:28;;;;;;;3.80;2.65;;;;;;;15.67;100.00;100603.13;5586780;31;33935;-71
2023/08/10 01:19:38;;;;;;;7.72;2.85;;;;;;;15.75;100.00;100608.31;5586776;31;34312;-71
2023/08/10 01:23:20;;;;;;;4.93;3.10;;;;;;;15.75;100.00;100607.47;5586761;31;34574;-70
2023/08/10 01:26:26;;;;;;;5.68;3.00;;;;;;;15.70;100.00;100608.06;5584317;31;33710;-70
2023/08/10 01:29:29;;;;;;;3.30;2.70;;;;;;;15.63;100.00;100605.38;5587001;31;34407;-70
2023/08/10 01:32:32;;;;;;;5.55;3.10;;;;;;;15.61;100.00;100604.72;5586636;31;33963;-71
2023/08/10 01:35:36;;;;;;;5.85;3.10;;;;;;;15.53;100.00;100609.41;5586556;31;34072;-70
2023/08/10 01:38:39;;;;;;;5.57;3.15;;;;;;;15.56;100.00;100607.16;5585739;31;33618;-71
2023/08/10 01:41:42;;;;;;;3.92;2.90;;;;;;;15.52;100.00;100610.41;5586323;31;33932;-71
2023/08/10 01:44:45;;;;;;;5.87;3.03;;;;;;;15.46;100.00;100603.13;5586242;31;33603;-70
2023/08/10 01:48:00;;;;;;;5.62;3.53;;;;;;;15.44;100.00;100599.84;5586449;31;33892;-70
2023/08/10 01:51:07;;;;;;;4.97;3.17;;;;;;;15.39;100.00;100611.13;5586753;31;34564;-70
2023/08/10 01:54:11;;;;;;;3.55;3.25;;;;;;;15.37;100.00;100605.12;5586225;31;33859;-70
2023/08/10 01:57:14;;;;;;;4.97;3.40;;;;;;;15.40;100.00;100609.25;5586155;31;34574;-70
2023/08/10 02:00:17;;;;;;;5.75;3.70;;;;;;;15.37;100.00;100607.78;5586130;31;34992;-70
2023/08/10 02:03:21;;;;;;;5.60;3.45;;;;;;;15.34;100.00;100610.88;5586317;31;33950;-70
2023/08/10 02:06:25;;;;;;;5.07;3.80;;;;;;;15.35;100.00;100606.31;5585094;31;34373;-70
2023/08/10 02:09:29;;;;;;;6.00;4.03;;;;;;;15.35;100.00;100609.81;5586015;31;34806;-70
2023/08/10 02:12:32;;;;;;;7.05;3.90;;;;;;;15.34;100.00;100612.72;5588006;31;34811;-70
2023/08/10 02:15:35;;;;;;;5.62;4.28;;;;;;;15.43;100.00;100608.88;5588435;31;34036;-70
2023/08/10 02:18:39;;;;;;;6.05;4.00;;;;;;;15.38;100.00;100605.94;5588815;31;35070;-70
2023/08/10 02:21:42;;;;;;;6.30;4.20;;;;;;;15.36;100.00;100605.31;5588636;31;34377;-70
2023/08/10 02:24:45;;;;;;;7.57;4.22;;;;;;;15.43;100.00;100608.88;5588279;31;33709;-69
2023/08/10 02:27:51;;;;;;;8.48;4.65;;;;;;;15.39;100.00;100595.06;5587444;31;33697;-70
2023/08/10 02:30:54;;;;;;;5.72;4.95;;;;;;;15.44;100.00;100600.63;5588303;31;32581;-71
2023/08/10 02:33:56;;;;;;;7.25;5.25;;;;;;;15.43;100.00;100603.53;5588329;31;34735;-70
2023/08/10 02:36:59;;;;;;;6.65;5.53;;;;;;;15.41;100.00;100611.72;5588234;31;33630;-70
2023/08/10 02:40:07;;;;;;;8.07;6.22;;;;;;;15.39;100.00;100605.78;5587692;31;34193;-70
2023/08/10 02:43:10;;;;;;;7.10;5.87;;;;;;;15.41;100.00;100603.72;5588045;31;33784;-71
2023/08/10 02:46:12;;;;;;;6.62;6.00;;;;;;;15.38;100.00;100596.09;5588017;31;34353;-70
2023/08/10 02:49:16;;;;;;;7.47;6.28;;;;;;;15.34;100.00;100602.84;5587221;31;34594;-70
2023/08/10 02:52:19;;;;;;;7.78;6.62;;;;;;;15.32;100.00;100602.19;5588182;31;33828;-70
2023/08/10 02:55:22;;;;;;;7.30;6.60;;;;;;;15.25;100.00;100608.53;5588113;31;33917;-69
2023/08/10 02:58:25;;;;;;;8.07;7.07;;;;;;;15.17;100.00;100609.47;5588158;31;33731;-70
2023/08/10 03:01:28;;;;;;;8.80;7.90;;;;;;;15.09;100.00;100602.41;5588039;31;33884;-70
2023/08/10 03:04:30;;;;;;;12.10;8.50;;;;;;;15.07;100.00;100601.78;5587988;31;33642;-70
2023/08/10 03:07:34;;;;;;;9.07;8.25;;;;;;;15.04;100.00;100604.00;5588219;31;34492;-70
2023/08/10 03:10:36;;;;;;;10.63;8.52;;;;;;;14.99;100.00;100606.44;5588099;31;33333;-70
2023/08/10 03:13:40;;;;;;;9.98;8.98;;;;;;;14.91;100.00;100602.00;5588179;31;33869;-70
2023/08/10 03:16:43;;;;;;;11.23;8.73;;;;;;;14.87;100.00;100602.59;5587898;31;34583;-70
2023/08/10 03:19:48;;;;;;;10.52;8.82;;;;;;;14.78;100.00;100604.56;5587856;31;34544;-70
2023/08/10 03:22:51;;;;;;;10.82;9.52;;;;;;;14.73;100.00;100606.97;5587469;31;33849;-71
2023/08/10 03:25:54;;;;;;;10.73;9.27;;;;;;;14.67;100.00;100610.37;5587950;31;34482;-68
2023/08/10 03:28:57;;;;;;;10.95;9.90;;;;;;;14.72;100.00;100602.63;5587592;31;34583;-68
2023/08/10 03:32:01;;;;;;;11.23;10.13;;;;;;;14.67;100.00;100611.22;5587779;31;34501;-69
2023/08/10 03:35:05;;;;;;;11.98;9.90;;;;;;;14.62;100.00;100610.97;5587880;31;33810;-68
2023/08/10 03:38:08;;;;;;;11.77;10.55;;;;;;;14.61;100.00;100605.81;5587114;31;34751;-69
2023/08/10 03:41:11;;;;;;;11.40;10.25;;;;;;;14.61;100.00;100609.31;5587990;31;33586;-69
2023/08/10 03:44:14;;;;;;;12.60;11.18;;;;;;;14.65;100.00;100615.09;5587260;31;34361;-69
2023/08/10 03:47:17;;;;;;;12.57;10.57;;;;;;;14.59;100.00;100611.34;5587614;31;33958;-70
2023/08/10 03:50:21;;;;;;;12.55;10.43;;;;;;;14.58;100.00;100630.22;5587601;31;33737;-69
2023/08/10 03:53:23;;;;;;;11.38;9.85;;;;;;;14.56;100.00;100635.75;5587504;31;33696;-69
2023/08/10 03:56:26;;;;;;;10.55;9.45;;;;;;;14.58;100.00;100631.03;5587574;31;34569;-70
2023/08/10 03:59:29;;;;;;;12.10;9.98;;;;;;;14.58;100.00;100638.22;5587780;31;33717;-69
2023/08/10 04:02:32;;;;;;;14.65;10.00;;;;;;;14.57;100.00;100642.72;5587343;31;34590;-70
2023/08/10 04:05:35;;;;;;;10.77;9.68;;;;;;;14.65;100.00;100639.97;5587195;31;33953;-70
2023/08/10 04:08:38;;;;;;;11.25;9.38;;;;;;;14.68;100.00;100644.94;5586519;31;34830;-70
2023/08/10 04:11:41;;;;;;;11.70;9.30;;;;;;;14.73;100.00;100642.53;5587271;31;33780;-69
2023/08/10 04:14:45;;;;;;;10.85;8.93;;;;;;;14.83;100.00;100649.41;5586941;31;34091;-69
2023/08/10 04:17:48;;;;;;;11.18;9.35;;;;;;;14.86;100.00;100651.72;5587402;31;33634;-69
2023/08/10 04:20:51;;;;;;;11.27;8.90;;;;;;;14.90;100.00;100656.47;5587280;31;33992;-69
2023/08/10 04:23:54;;;;;;;10.30;9.30;;;;;;;14.89;100.00;100649.47;5587235;31;34872;-70
2023/08/10 04:26:56;;;;;;;13.50;10.05;;;;;;;14.94;100.00;100656.94;5587180;31;33861;-69
2023/08/10 04:30:00;;;;;;;11.55;10.00;;;;;;;14.90;100.00;100658.31;5587255;31;34569;-69
2023/08/10 04:33:03;;;;;;;10.18;9.18;;;;;;;14.99;100.00;100665.19;5589113;31;34645;-69
2023/08/10 04:36:07;;;;;;;11.12;9.55;;;;;;;15.00;100.00;100661.53;5587208;31;33775;-69
2023/08/10 04:39:09;;;;;;;10.48;9.38;;;;;;;14.98;100.00;100664.37;5586089;31;34642;-70
2023/08/10 04:42:14;;;;;;;10.48;9.48;;;;;;;15.09;100.00;100663.87;5586930;31;33814;-70
2023/08/10 04:45:17;;;;;;;11.90;9.77;;;;;;;15.16;100.00;100658.59;5586963;31;34182;-69
2023/08/10 04:48:20;;;;;;;10.68;9.40;;;;;;;15.20;100.00;100668.69;5586939;31;33905;-69
2023/08/10 04:51:22;;;;;;;11.88;9.18;;;;;;;15.31;100.00;100669.22;5586946;31;33905;-70
2023/08/10 04:54:25;;;;;;;10.80;9.38;;;;;;;15.33;100.00;100665.34;5587198;31;34477;-69
2023/08/10 04:57:28;;;;;;;10.00;9.10;;;;;;;15.34;100.00;100660.81;5586905;31;33733;-70
2023/08/10 05:00:31;;;;;;;10.13;8.93;;;;;;;15.37;100.00;100661.25;5586947;31;33954;-70
2023/08/10 05:03:34;;;;;;;10.57;9.10;;;;;;;15.42;100.00;100668.72;5586889;31;34013;-70
2023/08/10 05:06:37;;;;;;;9.93;8.63;;;;;;;15.64;100.00;100673.03;5591636;31;34583;-68
2023/08/10 05:09:39;;;;;;;10.77;8.90;;;;;;;15.76;100.00;100671.50;5587043;31;33778;-71
2023/08/10 05:12:58;;;;;;;9.32;8.40;;;;;;;15.72;100.00;100688.13;5590526;31;34167;-71
2023/08/10 05:16:02;;;;;;;9.82;8.82;;;;;;;15.65;100.00;100683.53;5588898;31;34015;-71
2023/08/10 05:19:05;;;;;;;9.25;8.07;;;;;;;15.76;100.00;100687.53;5593073;31;33713;-71
2023/08/10 05:22:07;;;;;;;10.25;7.50;;;;;;;15.73;100.00;100690.63;5589639;31;34309;-71
2023/08/10 05:25:11;;;;;;;8.68;7.78;;;;;;;15.80;100.00;100687.97;5586464;31;33776;-71
2023/08/10 05:28:17;;;;;;;8.60;7.07;;;;;;;15.78;100.00;100685.50;5585621;31;34349;-72
2023/08/10 05:31:20;;;;;;;7.78;6.97;;;;;;;15.97;100.00;100687.50;5592760;31;35247;-71
2023/08/10 05:34:23;;;;;;;8.30;6.80;;;;;;;15.96;100.00;100687.69;5602352;31;34541;-70
2023/08/10 05:37:26;;;;;;;9.15;6.62;;;;;;;15.91;100.00;100692.81;5603835;31;33498;-71
2023/08/10 05:40:29;;;;;;;8.43;6.65;;;;;;;16.07;100.00;100695.19;5597291;31;34752;-71
2023/08/10 05:43:32;;;;;;;7.35;6.60;;;;;;;16.13;100.00;100696.22;5606007;31;34912;-71
2023/08/10 05:46:34;;;;;;;11.30;6.50;;;;;;;16.19;100.00;100698.97;5603733;31;33819;-70
2023/08/10 05:49:37;;;;;;;7.68;6.30;;;;;;;16.22;100.00;100693.22;5601450;31;34514;-71
2023/08/10 05:52:41;;;;;;;7.62;6.80;;;;;;;16.45;100.00;100698.31;5585025;31;34337;-70
2023/08/10 05:55:44;;;;;;;8.02;6.18;;;;;;;16.42;100.00;100704.03;5600111;31;34410;-70
2023/08/10 05:58:46;;;;;;;7.00;5.35;;;;;;;16.50;100.00;100710.06;5605866;31;33771;-72
2023/08/10 06:01:50;;;;;;;7.40;5.18;;;;;;;16.78;100.00;100719.91;5589604;31;35011;-72
2023/08/10 06:04:52;;;;;;;7.37;5.07;;;;;;;16.87;100.00;100711.50;5601274;31;33684;-71
2023/08/10 06:07:55;;;;;;;5.32;4.60;;;;;;;16.82;100.00;100713.12;5604338;31;33657;-71
2023/08/10 06:10:58;;;;;;;4.95;4.40;;;;;;;16.88;100.00;100715.84;5605735;31;33825;-71
2023/08/10 06:14:01;;;;;;;4.40;3.80;;;;;;;17.06;100.00;100711.75;5596223;31;33929;-71
2023/08/10 06:17:07;;;;;;;6.10;4.20;;;;;;;16.84;100.00;100719.13;5584755;31;33781;-71
2023/08/10 06:20:13;;;;;;;5.32;4.10;;;;;;;16.77;100.00;100719.09;5585594;31;33824;-70
2023/08/10 06:23:16;;;;;;;7.68;3.95;;;;;;;16.89;100.00;100727.38;5584548;31;33988;-72
2023/08/10 06:26:18;;;;;;;4.70;3.78;;;;;;;16.79;100.00;100721.56;5585772;31;34598;-71
2023/08/10 06:29:22;;;;;;;6.78;4.40;;;;;;;17.02;100.00;100713.19;5585219;31;33932;-71
2023/08/10 06:32:25;;;;;;;7.93;3.42;;;;;;;17.15;100.00;100711.37;5585013;31;33565;-71
2023/08/10 06:35:28;;;;;;;5.68;3.17;;;;;;;17.26;100.00;100718.00;5586159;31;33800;-72
2023/08/10 06:38:30;;;;;;;7.87;3.33;;;;;;;17.27;100.00;100714.31;5591628;31;34559;-72
2023/08/10 06:41:34;;;;;;;3.50;2.75;;;;;;;17.47;100.00;100720.53;5585152;31;34400;-71
2023/08/10 06:44:36;;;;;;;4.40;3.10;;;;;;;17.69;100.00;100724.69;5585003;31;34896;-70
2023/08/10 06:47:40;;;;;;;5.97;3.12;;;;;;;17.63;100.00;100724.69;5585416;31;33896;-71
2023/08/10 06:50:43;;;;;;;4.75;2.65;;;;;;;17.78;100.00;100720.78;5584368;31;33722;-71
2023/08/10 06:53:46;;;;;;;3.95;2.67;;;;;;;17.86;100.00;100726.97;5585004;31;33842;-73
2023/08/10 06:56:49;;;;;;;4.30;2.67;;;;;;;18.13;100.00;100729.44;5584530;31;33883;-71
2023/08/10 06:59:52;;;;;;;5.53;2.67;;;;;;;18.28;100.00;100739.13;5586674;31;34747;-71
2023/08/10 07:02:59;;;;;;;5.05;2.80;;;;;;;18.61;100.00;100732.66;5600526;31;33954;-72
2023/08/10 07:06:02;;;;;;;4.00;2.37;;;;;;;18.82;100.00;100741.50;5598203;31;33791;-71
2023/08/10 07:09:04;;;;;;;3.92;2.30;;;;;;;19.41;100.00;100747.38;5590330;31;34627;-70
2023/08/10 07:12:08;;;;;;;3.25;1.67;;;;;;;19.72;100.00;100743.91;5587796;31;33731;-71
2023/08/10 07:15:10;;;;;;;4.00;1.90;;;;;;;20.07;100.00;100746.09;5587034;31;34868;-73
2023/08/10 07:18:16;;;;;;;3.33;1.50;;;;;;;20.71;100.00;100749.22;5587752;31;33703;-72
2023/08/10 07:21:20;;;;;;;4.70;1.42;;;;;;;20.40;100.00;100754.72;5587614;31;33727;-72
2023/08/10 07:24:23;;;;;;;3.87;1.62;;;;;;;20.98;100.00;100751.56;5587929;31;33699;-71
2023/08/10 07:27:26;;;;;;;4.62;1.70;;;;;;;20.85;100.00;100754.44;5587214;31;34796;-72
2023/08/10 07:30:29;;;;;;;4.82;1.52;;;;;;;20.91;100.00;100754.38;5587628;31;34554;-70
2023/08/10 07:33:32;;;;;;;3.55;1.60;;;;;;;20.54;100.00;100763.50;5587735;31;33801;-72
2023/08/10 07:36:35;;;;;;;2.45;1.55;;;;;;;20.64;100.00;100761.94;5586700;31;33733;-75
2023/08/10 07:39:37;;;;;;;3.67;1.50;;;;;;;21.67;100.00;100770.78;5587558;31;33853;-72
2023/08/10 07:42:41;;;;;;;4.62;1.40;;;;;;;21.18;100.00;100763.81;5586372;31;33848;-70
2023/08/10 07:45:43;;;;;;;4.82;1.45;;;;;;;21.90;100.00;100764.59;5587216;31;33750;-72
2023/08/10 07:48:46;;;;;;;3.45;1.48;;;;;;;22.22;100.00;100757.03;5587130;31;34007;-72
2023/08/10 07:51:49;;;;;;;4.45;1.35;;;;;;;22.82;99.40;100759.47;5587754;31;34423;-72
2023/08/10 07:54:51;;;;;;;4.80;1.20;;;;;;;24.32;76.79;100762.47;5587329;31;33677;-72
2023/08/10 07:57:54;;;;;;;3.40;1.15;;;;;;;23.47;80.88;100759.16;5601735;31;33603;-72
2023/08/10 08:00:57;;;;;;;2.72;1.30;;;;;;;24.11;76.58;100755.06;5596702;31;33334;-73
2023/08/10 08:04:00;;;;;;;1.85;1.02;;;;;;;24.25;70.06;100759.16;5586492;31;34557;-72
2023/08/10 08:07:03;;;;;;;3.37;1.12;;;;;;;23.88;70.12;100768.78;5586114;31;34310;-73
2023/08/10 08:10:06;;;;;;;2.55;1.23;;;;;;;22.43;76.82;100764.53;5588496;31;33948;-71
2023/08/10 08:13:09;;;;;;;2.85;1.08;;;;;;;23.02;75.92;100761.75;5607212;31;34735;-72
2023/08/10 08:16:12;;;;;;;4.72;1.37;;;;;;;22.77;74.87;100762.87;5606965;31;33689;-72
2023/08/10 08:19:14;;;;;;;4.50;1.23;;;;;;;22.03;89.42;100764.41;5606440;31;34600;-73
2023/08/10 08:22:17;;;;;;;2.53;1.15;;;;;;;22.59;82.01;100759.47;5605862;31;33596;-72
2023/08/10 08:25:20;;;;;;;3.67;1.40;;;;;;;23.94;75.41;100765.09;5606723;31;33225;-74
2023/08/10 08:28:23;;;;;;;4.70;1.15;;;;;;;25.73;61.88;100773.47;5606593;31;33829;-72
2023/08/10 08:31:26;;;;;;;3.75;1.02;;;;;;;24.72;62.82;100777.69;5606308;31;33936;-71
2023/08/10 08:34:34;;;;;;;3.92;0.85;;;;;;;23.51;63.53;100773.84;5606870;31;34495;-72
2023/08/10 08:37:37;;;;;;;1.98;1.10;;;;;;;24.69;59.34;100776.28;5606495;31;33602;-73
2023/08/10 08:40:42;;;;;;;2.05;1.00;;;;;;;26.12;55.12;100776.78;5601796;31;34715;-72
2023/08/10 08:43:47;;;;;;;1.48;1.10;;;;;;;24.98;52.97;100777.00;5604939;31;34327;-72
2023/08/10 08:46:50;;;;;;;1.42;1.10;;;;;;;26.32;51.00;100785.94;5606298;31;33968;-71
2023/08/10 08:49:53;;;;;;;1.00;0.80;;;;;;;24.74;52.98;100789.91;5605339;31;34133;-73
2023/08/10 08:52:57;;;;;;;2.08;0.82;;;;;;;25.40;52.63;100782.63;5604868;31;34422;-71
2023/08/10 08:56:01;;;;;;;1.40;0.90;;;;;;;24.20;55.00;100776.16;5603472;31;33452;-72
2023/08/10 08:59:04;;;;;;;3.17;0.98;;;;;;;25.52;52.14;100778.66;5598426;31;33572;-74
2023/08/10 09:02:10;;;;;;;3.78;1.02;;;;;;;26.82;47.37;100779.13;5606520;31;33721;-73
2023/08/10 09:05:20;;;;;;;1.20;1.00;;;;;;;26.43;46.21;100783.28;5605802;31;33864;-72
2023/08/10 09:08:23;;;;;;;3.35;1.10;;;;;;;27.44;42.76;100781.84;5606178;31;35085;-74
2023/08/10 09:11:26;;;;;;;5.50;1.02;;;;;;;29.29;40.10;100797.44;5605651;31;33954;-73
2023/08/10 09:14:29;;;;;;;1.87;1.00;;;;;;;29.64;38.18;100790.97;5592585;31;33519;-74
2023/08/10 09:17:37;;;;;;;1.65;1.00;;;;;;;28.09;39.62;100785.72;5606034;31;33722;-74
2023/08/10 09:20:40;;;;;;;5.43;0.98;;;;;;;28.73;37.82;100782.41;5604490;31;33929;-73
2023/08/10 09:23:45;;;;;;;2.92;0.90;;;;;;;28.41;37.56;100785.47;5604710;31;34450;-73
2023/08/10 09:26:51;;;;;;;3.87;0.80;;;;;;;29.20;35.40;100788.19;5604526;31;33830;-73
2023/08/10 09:29:58;;;;;;;2.15;0.75;;;;;;;29.62;34.73;100784.16;5599103;31;33942;-73
2023/08/10 09:33:01;;;;;;;1.35;0.80;;;;;;;29.37;34.65;100782.41;5591386;31;34255;-73
2023/08/10 09:36:07;;;;;;;2.08;1.00;;;;;;;29.94;32.36;100786.41;5586654;31;33639;-72
2023/08/10 09:39:16;;;;;;;1.52;0.90;;;;;;;28.90;33.81;100777.44;5585311;31;33765;-73
2023/08/10 09:42:19;;;;;;;0.95;0.85;;;;;;;28.99;33.63;100781.22;5585102;31;33892;-72
2023/08/10 09:45:22;;;;;;;3.10;0.98;;;;;;;28.20;35.47;100779.22;5585828;31;34547;-72
2023/08/10 09:48:36;;;;;;;2.33;1.08;;;;;;;29.47;32.93;100784.25;5585947;31;34430;-71
2023/08/10 09:51:39;;;;;;;4.57;1.80;;;;;;;27.40;36.27;100777.22;5585512;31;34132;-72
2023/08/10 09:54:42;;;;;;;9.38;1.00;;;;;;;28.31;35.38;100780.03;5585590;31;33991;-73
2023/08/10 09:57:45;;;;;;;2.75;0.80;;;;;;;29.80;33.69;100789.78;5585769;31;33762;-72
2023/08/10 10:00:49;;;;;;;1.00;0.82;;;;;;;29.10;33.93;100787.44;5595637;31;34115;-72
2023/08/10 10:03:52;;;;;;;1.40;0.70;;;;;;;29.36;32.05;100786.25;5591058;31;34380;-72
2023/08/10 10:06:56;;;;;;;1.85;0.98;;;;;;;29.95;31.51;100783.38;5602733;31;33649;-74
2023/08/10 10:10:01;;;;;;;2.25;0.70;;;;;;;30.78;30.56;100788.59;5604644;31;33891;-71
2023/08/10 10:13:08;;;;;;;1.55;0.88;;;;;;;30.42;30.32;100770.91;5601945;31;34161;-72
2023/08/10 10:16:12;;;;;;;0.95;0.80;;;;;;;29.96;31.22;100767.78;5584331;31;32041;-73
2023/08/10 10:19:14;;;;;;;2.95;0.90;;;;;;;31.30;30.04;100773.16;5596942;31;34314;-71
2023/08/10 10:22:18;;;;;;;2.30;0.90;;;;;;;29.34;32.16;100770.13;5588205;31;34106;-73
2023/08/10 10:25:21;;;;;;;3.50;0.90;;;;;;;29.89;32.50;100762.66;5583695;31;35032;-73
2023/08/10 10:28:27;;;;;;;3.87;0.90;;;;;;;30.18;30.86;100770.88;5586537;31;33673;-74
2023/08/10 10:31:30;;;;;;;1.37;0.80;;;;;;;31.79;29.68;100770.78;5597095;31;34705;-74
2023/08/10 10:34:33;;;;;;;3.08;1.08;;;;;;;32.39;28.74;100768.09;5591388;31;33966;-72
2023/08/10 10:37:37;;;;;;;3.35;1.00;;;;;;;31.74;28.46;100768.13;5588117;31;34401;-73
2023/08/10 10:40:40;;;;;;;1.65;0.80;;;;;;;33.42;27.31;100776.72;5586934;31;33794;-74
2023/08/10 10:43:44;;;;;;;2.42;0.88;;;;;;;32.46;27.97;100763.03;5586657;31;33670;-72
2023/08/10 10:46:47;;;;;;;1.60;0.90;;;;;;;30.11;29.57;100751.25;5596177;31;34306;-72
2023/08/10 10:49:54;;;;;;;2.15;1.05;;;;;;;30.61;29.92;100747.16;5599392;31;34002;-73
2023/08/10 10:53:05;;;;;;;1.55;1.00;;;;;;;34.21;27.18;100755.00;5574815;31;34070;-74
2023/08/10 10:56:09;;;;;;;1.33;0.77;;;;;;;34.01;25.81;100759.88;5586558;31;33594;-73
2023/08/10 10:59:14;;;;;;;2.85;0.90;;;;;;;31.88;26.87;100743.47;5587543;31;33772;-73
2023/08/10 11:02:17;;;;;;;1.52;0.82;;;;;;;32.27;26.28;100746.63;5587388;31;33837;-72
2023/08/10 11:05:21;;;;;;;1.58;0.80;;;;;;;33.42;24.28;100757.47;5591013;31;33743;-72
2023/08/10 11:08:24;;;;;;;2.17;0.80;;;;;;;32.86;25.00;100746.88;5595891;31;34380;-72
2023/08/10 11:11:29;;;;;;;1.08;0.73;;;;;;;30.90;26.81;100747.06;5591876;31;34606;-72
2023/08/10 11:14:33;;;;;;;1.73;1.10;;;;;;;32.53;24.63;100749.72;5587360;31;33878;-72
2023/08/10 11:17:37;;;;;;;2.72;0.75;;;;;;;33.85;24.54;100742.13;5585775;31;34234;-72
2023/08/10 11:20:54;;;;;;;2.08;0.90;;;;;;;33.73;22.98;100739.13;5585940;31;33508;-72
2023/08/10 11:24:03;;;;;;;0.80;0.80;;;;;;;35.57;21.61;100742.69;5587183;31;33972;-71
2023/08/10 11:27:06;;;;;;;1.70;0.65;;;;;;;34.82;21.86;100741.13;5591748;31;34402;-71
2023/08/10 11:30:15;;;;;;;1.20;0.77;;;;;;;35.47;22.53;100737.50;5598438;31;33845;-72
2023/08/10 11:33:19;;;;;;;1.33;0.75;;;;;;;35.56;21.79;100738.31;5592597;31;33884;-72
2023/08/10 11:36:23;;;;;;;1.58;0.80;;;;;;;34.52;23.50;100739.22;5588889;31;33631;-71
2023/08/10 11:39:27;;;;;;;2.12;0.98;;;;;;;34.46;23.14;100724.81;5591755;31;33951;-71
2023/08/10 11:42:36;;;;;;;2.58;0.90;;;;;;;34.46;24.31;100724.81;5595167;31;34390;-71
2023/08/10 11:45:40;;;;;;;1.55;1.00;;;;;;;36.95;21.59;100722.88;5595102;31;34631;-69
2023/08/10 11:48:46;;;;;;;2.12;0.90;;;;;;;34.94;21.55;100718.47;5582332;31;33645;-71
2023/08/10 11:51:48;;;;;;;1.77;0.88;;;;;;;35.90;21.39;100728.37;5596040;31;33521;-72
2023/08/10 11:54:53;;;;;;;5.18;1.02;;;;;;;37.07;20.58;100727.69;5605149;31;32342;-71
2023/08/10 11:57:58;;;;;;;2.97;1.00;;;;;;;37.96;20.62;100726.25;5588166;31;33626;-72
2023/08/10 12:01:05;;;;;;;4.05;0.70;;;;;;;39.93;19.00;100723.38;5585119;31;34714;-72
2023/08/10 12:04:11;;;;;;;4.68;1.00;;;;;;;39.30;18.04;100716.78;5586955;31;33593;-72
2023/08/10 12:07:23;;;;;;;1.58;0.90;;;;;;;38.51;19.59;100728.56;5606885;31;33793;-72
2023/08/10 12:10:45;;;;;;;1.58;0.95;;;;;;;38.60;19.58;100720.94;5606920;31;33825;-72
2023/08/10 12:13:50;;;;;;;1.33;0.90;;;;;;;39.83;19.52;100710.00;5607089;31;34366;-71
2023/08/10 12:16:54;;;;;;;2.28;0.85;;;;;;;37.33;21.59;100708.94;5593321;31;33888;-71
2023/08/10 12:19:59;;;;;;;1.62;0.82;;;;;;;38.57;20.36;100716.91;5605831;31;33836;-72
2023/08/10 12:23:03;;;;;;;2.33;0.90;;;;;;;36.84;21.97;100688.50;5607150;31;33448;-71
2023/08/10 12:26:08;;;;;;;1.10;0.80;;;;;;;39.61;19.50;100691.09;5606527;31;34870;-71
2023/08/10 12:29:13;;;;;;;0.98;0.80;;;;;;;38.80;19.41;100697.81;5603660;31;33808;-71
2023/08/10 12:32:16;;;;;;;3.40;1.10;;;;;;;40.78;19.07;100700.47;5592564;31;33880;-72
2023/08/10 12:35:23;;;;;;;1.20;0.90;;;;;;;36.71;21.73;100697.84;5590193;31;34326;-72
2023/08/10 12:38:28;;;;;;;3.58;0.73;;;;;;;35.39;23.11;100693.38;5606869;31;33686;-71
2023/08/10 12:41:33;;;;;;;8.23;0.80;;;;;;;34.42;24.58;100693.50;5605599;31;33525;-72
2023/08/10 12:44:36;;;;;;;1.05;0.70;;;;;;;36.25;23.59;100696.78;5605607;31;33566;-71
2023/08/10 12:47:44;;;;;;;1.73;0.90;;;;;;;36.76;22.89;100692.13;5595099;31;34677;-72
2023/08/10 12:50:48;;;;;;;2.78;1.15;;;;;;;37.14;22.85;100692.84;5600331;31;34929;-71
2023/08/10 12:53:55;;;;;;;1.35;0.70;;;;;;;35.92;24.14;100687.44;5596124;31;33720;-70
2023/08/10 12:57:01;;;;;;;1.40;0.90;;;;;;;37.05;21.22;100683.75;5585259;31;34102;-71
2023/08/10 13:00:07;;;;;;;2.25;0.80;;;;;;;38.12;20.60;100697.59;5586480;31;33816;-72
2023/08/10 13:03:11;;;;;;;1.67;0.82;;;;;;;38.14;20.46;100692.53;5585825;31;34664;-71
2023/08/10 13:06:16;;;;;;;1.12;0.75;;;;;;;37.84;20.74;100688.28;5586222;31;33924;-72
2023/08/10 13:09:18;;;;;;;2.22;0.90;;;;;;;35.73;21.50;100679.53;5586853;31;35288;-71
2023/08/10 13:12:25;;;;;;;1.35;0.85;;;;;;;33.13;24.42;100670.66;5586113;31;33873;-71
2023/08/10 13:15:36;;;;;;;1.40;0.70;;;;;;;33.82;23.24;100682.19;5586808;31;33876;-71
2023/08/10 13:18:39;;;;;;;1.10;0.93;;;;;;;36.66;20.68;100676.72;5585234;31;33783;-71
2023/08/10 13:21:42;;;;;;;6.03;0.85;;;;;;;37.50;20.97;100670.03;5586072;31;33878;-70
2023/08/10 13:24:46;;;;;;;1.40;0.80;;;;;;;38.46;18.80;100681.69;5586223;31;34590;-72
2023/08/10 13:27:51;;;;;;;0.90;0.77;;;;;;;37.26;20.30;100679.06;5585342;31;33992;-71
2023/08/10 13:31:00;;;;;;;1.67;0.90;;;;;;;37.54;19.52;100671.00;5586530;31;32683;-71
2023/08/10 13:34:08;;;;;;;2.75;0.80;;;;;;;39.00;18.98;100671.09;5586721;31;32620;-72
2023/08/10 13:37:11;;;;;;;1.33;0.90;;;;;;;40.20;18.12;100671.66;5586499;31;34536;-73
2023/08/10 13:40:14;;;;;;;4.95;1.02;;;;;;;38.91;19.26;100670.44;5585650;31;33543;-72
2023/08/10 13:43:18;;;;;;;5.50;0.98;;;;;;;37.40;20.16;100662.16;5584796;31;34393;-70
2023/08/10 13:46:21;;;;;;;2.58;0.88;;;;;;;36.46;20.37;100666.41;5572584;31;32763;-72
2023/08/10 13:49:34;;;;;;;1.50;1.00;;;;;;;35.73;22.17;100665.72;5585017;31;33950;-70
2023/08/10 13:52:51;;;;;;;3.45;0.95;;;;;;;35.71;21.62;100659.72;5574488;31;33577;-70
2023/08/10 13:55:55;;;;;;;1.98;0.80;;;;;;;35.58;21.86;100657.97;5584985;31;35375;-72
2023/08/10 13:58:59;;;;;;;1.55;1.00;;;;;;;36.53;20.89;100669.47;5584905;31;34595;-70
2023/08/10 14:02:03;;;;;;;2.80;0.90;;;;;;;35.38;22.74;100648.41;5585480;31;34021;-71
2023/08/10 14:05:13;;;;;;;1.48;0.80;;;;;;;39.66;18.70;100662.25;5585533;31;33518;-71
2023/08/10 14:08:17;;;;;;;3.92;0.95;;;;;;;39.15;18.94;100666.78;5587524;31;33866;-72
2023/08/10 14:11:22;;;;;;;2.97;0.95;;;;;;;37.42;19.81;100663.44;5588107;31;33692;-71